sensor_id;sensor_type;location;lat;lon;timestamp;P1;durP1;ratioP1;P2;durP2;ratioP2
13592;SDS011;6867;50.998;4.250;2022-09-12T00:02:22;8.55;;;6.68;;
13592;SDS011;6867;50.998;4.250;2022-09-12T00:04:49;8.23;;;7.07;;
13592;SDS011;6867;50.998;4.250;2022-09-12T00:07:16;9.27;;;6.50;;
13592;SDS011;6867;50.998;4.250;2022-09-12T00:09:42;9.30;;;7.20;;
13592;SDS011;6867;50.998;4.250;2022-09-12T00:12:11;10.93;;;7.33;;
13592;SDS011;6867;50.998;4.250;2022-09-12T00:14:37;8.52;;;6.90;;
13592;SDS011;6867;50.998;4.250;2022-09-12T00:17:04;9.43;;;6.03;;
13592;SDS011;6867;50.998;4.250;2022-09-12T00:19:31;8.50;;;6.22;;
13592;SDS011;6867;50.998;4.250;2022-09-12T00:21:57;8.35;;;6.88;;
13592;SDS011;6867;50.998;4.250;2022-09-12T00:24:24;9.05;;;7.22;;
13592;SDS011;6867;50.998;4.250;2022-09-12T00:26:50;8.60;;;6.45;;
13592;SDS011;6867;50.998;4.250;2022-09-12T00:29:22;8.13;;;6.85;;
13592;SDS011;6867;50.998;4.250;2022-09-12T00:31:48;9.40;;;6.28;;
13592;SDS011;6867;50.998;4.250;2022-09-12T00:34:15;7.37;;;6.00;;
13592;SDS011;6867;50.998;4.250;2022-09-12T00:36:42;12.63;;;6.85;;
13592;SDS011;6867;50.998;4.250;2022-09-12T00:39:09;7.50;;;6.57;;
13592;SDS011;6867;50.998;4.250;2022-09-12T00:41:40;7.45;;;6.53;;
13592;SDS011;6867;50.998;4.250;2022-09-12T00:47:24;8.73;;;7.00;;
13592;SDS011;6867;50.998;4.250;2022-09-12T00:49:57;7.72;;;5.88;;
13592;SDS011;6867;50.998;4.250;2022-09-12T00:52:30;10.10;;;7.53;;
13592;SDS011;6867;50.998;4.250;2022-09-12T00:55:02;9.10;;;6.47;;
13592;SDS011;6867;50.998;4.250;2022-09-12T00:57:33;9.80;;;7.20;;
13592;SDS011;6867;50.998;4.250;2022-09-12T01:00:06;9.52;;;7.63;;
13592;SDS011;6867;50.998;4.250;2022-09-12T01:02:41;8.77;;;7.10;;
13592;SDS011;6867;50.998;4.250;2022-09-12T01:05:09;7.68;;;6.57;;
13592;SDS011;6867;50.998;4.250;2022-09-12T01:07:38;9.70;;;6.85;;
13592;SDS011;6867;50.998;4.250;2022-09-12T01:10:06;8.98;;;6.78;;
13592;SDS011;6867;50.998;4.250;2022-09-12T01:12:33;9.47;;;7.13;;
13592;SDS011;6867;50.998;4.250;2022-09-12T01:15:04;10.30;;;8.40;;
13592;SDS011;6867;50.998;4.250;2022-09-12T01:17:33;9.80;;;7.23;;
13592;SDS011;6867;50.998;4.250;2022-09-12T01:20:23;8.98;;;7.70;;
13592;SDS011;6867;50.998;4.250;2022-09-12T01:23:19;12.13;;;7.77;;
13592;SDS011;6867;50.998;4.250;2022-09-12T01:26:14;7.80;;;7.00;;
13592;SDS011;6867;50.998;4.250;2022-09-12T01:29:03;11.40;;;7.40;;
13592;SDS011;6867;50.998;4.250;2022-09-12T01:31:53;11.17;;;7.10;;
13592;SDS011;6867;50.998;4.250;2022-09-12T01:34:29;6.60;;;5.30;;
13592;SDS011;6867;50.998;4.250;2022-09-12T01:37:02;7.00;;;5.70;;
13592;SDS011;6867;50.998;4.250;2022-09-12T01:39:39;9.80;;;6.53;;
13592;SDS011;6867;50.998;4.250;2022-09-12T01:42:17;7.20;;;6.37;;
13592;SDS011;6867;50.998;4.250;2022-09-12T01:44:52;8.73;;;6.33;;
13592;SDS011;6867;50.998;4.250;2022-09-12T01:47:29;9.50;;;6.97;;
13592;SDS011;6867;50.998;4.250;2022-09-12T01:50:05;10.03;;;6.97;;
13592;SDS011;6867;50.998;4.250;2022-09-12T01:52:36;10.43;;;7.43;;
13592;SDS011;6867;50.998;4.250;2022-09-12T01:55:08;8.73;;;6.57;;
13592;SDS011;6867;50.998;4.250;2022-09-12T01:57:38;8.07;;;6.13;;
13592;SDS011;6867;50.998;4.250;2022-09-12T02:00:09;9.83;;;6.63;;
13592;SDS011;6867;50.998;4.250;2022-09-12T02:02:39;6.20;;;5.03;;
13592;SDS011;6867;50.998;4.250;2022-09-12T02:05:15;9.37;;;5.20;;
13592;SDS011;6867;50.998;4.250;2022-09-12T02:07:47;8.65;;;5.88;;
13592;SDS011;6867;50.998;4.250;2022-09-12T02:10:19;10.57;;;7.40;;
13592;SDS011;6867;50.998;4.250;2022-09-12T02:12:51;11.02;;;7.75;;
13592;SDS011;6867;50.998;4.250;2022-09-12T02:15:22;8.18;;;6.75;;
13592;SDS011;6867;50.998;4.250;2022-09-12T02:17:55;8.93;;;6.80;;
13592;SDS011;6867;50.998;4.250;2022-09-12T02:20:27;9.60;;;7.07;;
13592;SDS011;6867;50.998;4.250;2022-09-12T02:22:58;7.35;;;5.50;;
13592;SDS011;6867;50.998;4.250;2022-09-12T02:25:26;7.75;;;6.22;;
13592;SDS011;6867;50.998;4.250;2022-09-12T02:27:56;7.27;;;6.17;;
13592;SDS011;6867;50.998;4.250;2022-09-12T02:30:27;7.60;;;6.20;;
13592;SDS011;6867;50.998;4.250;2022-09-12T02:33:00;8.23;;;5.83;;
13592;SDS011;6867;50.998;4.250;2022-09-12T02:35:32;7.63;;;5.75;;
13592;SDS011;6867;50.998;4.250;2022-09-12T02:38:06;10.23;;;5.90;;
13592;SDS011;6867;50.998;4.250;2022-09-12T02:40:36;14.03;;;7.13;;
13592;SDS011;6867;50.998;4.250;2022-09-12T02:43:04;12.43;;;7.45;;
13592;SDS011;6867;50.998;4.250;2022-09-12T02:45:31;9.83;;;7.30;;
13592;SDS011;6867;50.998;4.250;2022-09-12T02:48:01;8.07;;;6.57;;
13592;SDS011;6867;50.998;4.250;2022-09-12T02:50:31;9.97;;;6.50;;
13592;SDS011;6867;50.998;4.250;2022-09-12T02:52:58;9.20;;;7.23;;
13592;SDS011;6867;50.998;4.250;2022-09-12T02:55:29;8.80;;;7.17;;
13592;SDS011;6867;50.998;4.250;2022-09-12T02:57:56;8.90;;;6.73;;
13592;SDS011;6867;50.998;4.250;2022-09-12T03:00:23;9.23;;;7.63;;
13592;SDS011;6867;50.998;4.250;2022-09-12T03:02:54;11.97;;;7.83;;
13592;SDS011;6867;50.998;4.250;2022-09-12T03:05:35;9.90;;;7.33;;
13592;SDS011;6867;50.998;4.250;2022-09-12T03:11:24;11.57;;;8.50;;
13592;SDS011;6867;50.998;4.250;2022-09-12T03:14:02;11.20;;;8.87;;
13592;SDS011;6867;50.998;4.250;2022-09-12T03:16:39;10.00;;;8.13;;
13592;SDS011;6867;50.998;4.250;2022-09-12T03:19:15;15.70;;;8.33;;
13592;SDS011;6867;50.998;4.250;2022-09-12T03:21:52;10.27;;;8.20;;
13592;SDS011;6867;50.998;4.250;2022-09-12T03:24:28;10.70;;;7.90;;
13592;SDS011;6867;50.998;4.250;2022-09-12T03:27:04;14.77;;;8.13;;
13592;SDS011;6867;50.998;4.250;2022-09-12T03:29:36;10.07;;;7.40;;
13592;SDS011;6867;50.998;4.250;2022-09-12T03:32:05;9.67;;;7.20;;
13592;SDS011;6867;50.998;4.250;2022-09-12T03:34:33;11.30;;;7.80;;
13592;SDS011;6867;50.998;4.250;2022-09-12T03:37:00;13.43;;;7.93;;
13592;SDS011;6867;50.998;4.250;2022-09-12T03:39:27;8.63;;;6.30;;
13592;SDS011;6867;50.998;4.250;2022-09-12T03:41:54;10.30;;;6.33;;
13592;SDS011;6867;50.998;4.250;2022-09-12T03:44:21;9.80;;;7.53;;
13592;SDS011;6867;50.998;4.250;2022-09-12T03:46:48;7.73;;;6.10;;
13592;SDS011;6867;50.998;4.250;2022-09-12T03:49:15;6.80;;;5.33;;
13592;SDS011;6867;50.998;4.250;2022-09-12T03:51:43;6.90;;;5.30;;
13592;SDS011;6867;50.998;4.250;2022-09-12T03:54:10;7.20;;;5.57;;
13592;SDS011;6867;50.998;4.250;2022-09-12T03:56:37;8.10;;;6.27;;
13592;SDS011;6867;50.998;4.250;2022-09-12T03:59:05;8.80;;;7.03;;
13592;SDS011;6867;50.998;4.250;2022-09-12T04:01:33;7.47;;;6.07;;
13592;SDS011;6867;50.998;4.250;2022-09-12T04:04:00;8.63;;;5.83;;
13592;SDS011;6867;50.998;4.250;2022-09-12T04:06:27;10.73;;;6.50;;
13592;SDS011;6867;50.998;4.250;2022-09-12T04:08:55;10.70;;;7.57;;
13592;SDS011;6867;50.998;4.250;2022-09-12T04:11:22;7.70;;;6.17;;
13592;SDS011;6867;50.998;4.250;2022-09-12T04:13:49;7.90;;;5.90;;
13592;SDS011;6867;50.998;4.250;2022-09-12T04:16:16;9.73;;;6.07;;
13592;SDS011;6867;50.998;4.250;2022-09-12T04:18:43;9.77;;;7.03;;
13592;SDS011;6867;50.998;4.250;2022-09-12T04:21:11;8.30;;;6.77;;
13592;SDS011;6867;50.998;4.250;2022-09-12T04:23:40;10.40;;;7.23;;
13592;SDS011;6867;50.998;4.250;2022-09-12T04:26:08;10.20;;;7.60;;
13592;SDS011;6867;50.998;4.250;2022-09-12T04:28:37;8.93;;;6.87;;
13592;SDS011;6867;50.998;4.250;2022-09-12T04:31:05;7.77;;;6.30;;
13592;SDS011;6867;50.998;4.250;2022-09-12T04:33:33;10.03;;;6.27;;
13592;SDS011;6867;50.998;4.250;2022-09-12T04:36:04;9.10;;;6.53;;
13592;SDS011;6867;50.998;4.250;2022-09-12T04:38:32;7.20;;;5.67;;
13592;SDS011;6867;50.998;4.250;2022-09-12T04:40:58;7.63;;;5.53;;
13592;SDS011;6867;50.998;4.250;2022-09-12T04:43:27;9.70;;;6.90;;
13592;SDS011;6867;50.998;4.250;2022-09-12T04:45:53;8.83;;;6.63;;
13592;SDS011;6867;50.998;4.250;2022-09-12T04:48:20;10.03;;;6.83;;
13592;SDS011;6867;50.998;4.250;2022-09-12T04:50:47;10.37;;;7.57;;
13592;SDS011;6867;50.998;4.250;2022-09-12T04:53:14;8.97;;;6.40;;
13592;SDS011;6867;50.998;4.250;2022-09-12T04:55:41;7.83;;;5.93;;
13592;SDS011;6867;50.998;4.250;2022-09-12T04:58:08;10.97;;;6.63;;
13592;SDS011;6867;50.998;4.250;2022-09-12T05:00:36;9.93;;;6.10;;
13592;SDS011;6867;50.998;4.250;2022-09-12T05:03:02;10.10;;;5.40;;
13592;SDS011;6867;50.998;4.250;2022-09-12T05:05:29;9.33;;;6.57;;
13592;SDS011;6867;50.998;4.250;2022-09-12T05:07:56;9.07;;;6.70;;
13592;SDS011;6867;50.998;4.250;2022-09-12T05:10:22;9.10;;;7.07;;
13592;SDS011;6867;50.998;4.250;2022-09-12T05:12:49;10.23;;;7.03;;
13592;SDS011;6867;50.998;4.250;2022-09-12T05:15:15;8.00;;;6.87;;
13592;SDS011;6867;50.998;4.250;2022-09-12T05:17:43;10.17;;;6.93;;
13592;SDS011;6867;50.998;4.250;2022-09-12T05:20:10;9.77;;;7.27;;
13592;SDS011;6867;50.998;4.250;2022-09-12T05:22:37;9.53;;;7.63;;
13592;SDS011;6867;50.998;4.250;2022-09-12T05:25:04;10.47;;;7.23;;
13592;SDS011;6867;50.998;4.250;2022-09-12T05:27:32;10.40;;;8.13;;
13592;SDS011;6867;50.998;4.250;2022-09-12T05:29:58;11.50;;;7.27;;
13592;SDS011;6867;50.998;4.250;2022-09-12T05:32:25;12.43;;;7.03;;
13592;SDS011;6867;50.998;4.250;2022-09-12T05:34:53;9.10;;;6.13;;
13592;SDS011;6867;50.998;4.250;2022-09-12T05:37:20;8.17;;;5.97;;
13592;SDS011;6867;50.998;4.250;2022-09-12T05:39:47;6.93;;;5.47;;
13592;SDS011;6867;50.998;4.250;2022-09-12T05:42:13;9.33;;;6.77;;
13592;SDS011;6867;50.998;4.250;2022-09-12T05:44:40;9.67;;;6.63;;
13592;SDS011;6867;50.998;4.250;2022-09-12T05:47:07;9.33;;;6.60;;
13592;SDS011;6867;50.998;4.250;2022-09-12T05:49:37;9.80;;;7.07;;
13592;SDS011;6867;50.998;4.250;2022-09-12T05:52:05;12.60;;;8.10;;
13592;SDS011;6867;50.998;4.250;2022-09-12T05:54:32;12.33;;;7.47;;
13592;SDS011;6867;50.998;4.250;2022-09-12T05:56:59;14.23;;;7.90;;
13592;SDS011;6867;50.998;4.250;2022-09-12T05:59:26;10.57;;;7.50;;
13592;SDS011;6867;50.998;4.250;2022-09-12T06:01:52;12.20;;;7.40;;
13592;SDS011;6867;50.998;4.250;2022-09-12T06:04:19;11.13;;;7.87;;
13592;SDS011;6867;50.998;4.250;2022-09-12T06:06:47;8.97;;;7.03;;
13592;SDS011;6867;50.998;4.250;2022-09-12T06:09:15;11.67;;;8.30;;
13592;SDS011;6867;50.998;4.250;2022-09-12T06:11:43;9.30;;;7.40;;
13592;SDS011;6867;50.998;4.250;2022-09-12T06:14:11;14.40;;;8.83;;
13592;SDS011;6867;50.998;4.250;2022-09-12T06:16:39;12.57;;;8.37;;
13592;SDS011;6867;50.998;4.250;2022-09-12T06:19:07;11.83;;;8.50;;
13592;SDS011;6867;50.998;4.250;2022-09-12T06:21:39;18.57;;;8.80;;
13592;SDS011;6867;50.998;4.250;2022-09-12T06:24:05;13.90;;;8.93;;
13592;SDS011;6867;50.998;4.250;2022-09-12T06:26:34;11.03;;;8.40;;
13592;SDS011;6867;50.998;4.250;2022-09-12T06:29:00;13.17;;;8.03;;
13592;SDS011;6867;50.998;4.250;2022-09-12T06:31:28;11.95;;;8.40;;
13592;SDS011;6867;50.998;4.250;2022-09-12T06:33:58;14.90;;;10.27;;
13592;SDS011;6867;50.998;4.250;2022-09-12T06:36:27;22.02;;;12.40;;
13592;SDS011;6867;50.998;4.250;2022-09-12T06:38:56;19.73;;;12.20;;
13592;SDS011;6867;50.998;4.250;2022-09-12T06:41:25;18.08;;;11.02;;
13592;SDS011;6867;50.998;4.250;2022-09-12T06:43:54;12.85;;;9.50;;
13592;SDS011;6867;50.998;4.250;2022-09-12T06:46:21;16.02;;;11.70;;
13592;SDS011;6867;50.998;4.250;2022-09-12T06:48:48;15.30;;;10.45;;
13592;SDS011;6867;50.998;4.250;2022-09-12T06:51:15;14.88;;;10.77;;
13592;SDS011;6867;50.998;4.250;2022-09-12T06:53:44;17.05;;;11.65;;
13592;SDS011;6867;50.998;4.250;2022-09-12T06:56:12;16.15;;;11.38;;
13592;SDS011;6867;50.998;4.250;2022-09-12T06:58:40;18.05;;;12.50;;
13592;SDS011;6867;50.998;4.250;2022-09-12T07:01:09;22.52;;;13.18;;
13592;SDS011;6867;50.998;4.250;2022-09-12T07:03:37;21.70;;;14.05;;
13592;SDS011;6867;50.998;4.250;2022-09-12T07:06:05;20.45;;;13.07;;
13592;SDS011;6867;50.998;4.250;2022-09-12T07:08:33;16.63;;;12.38;;
13592;SDS011;6867;50.998;4.250;2022-09-12T07:11:07;17.70;;;12.55;;
13592;SDS011;6867;50.998;4.250;2022-09-12T07:13:34;19.42;;;11.55;;
13592;SDS011;6867;50.998;4.250;2022-09-12T07:16:01;17.90;;;12.95;;
13592;SDS011;6867;50.998;4.250;2022-09-12T07:18:29;20.15;;;12.45;;
13592;SDS011;6867;50.998;4.250;2022-09-12T07:20:58;19.45;;;12.00;;
13592;SDS011;6867;50.998;4.250;2022-09-12T07:23:25;17.90;;;12.48;;
13592;SDS011;6867;50.998;4.250;2022-09-12T07:25:52;17.90;;;12.32;;
13592;SDS011;6867;50.998;4.250;2022-09-12T07:28:21;17.58;;;11.50;;
13592;SDS011;6867;50.998;4.250;2022-09-12T07:30:48;17.80;;;11.13;;
13592;SDS011;6867;50.998;4.250;2022-09-12T07:33:15;14.88;;;10.60;;
13592;SDS011;6867;50.998;4.250;2022-09-12T07:35:43;17.45;;;10.98;;
13592;SDS011;6867;50.998;4.250;2022-09-12T07:38:09;14.13;;;9.10;;
13592;SDS011;6867;50.998;4.250;2022-09-12T07:40:36;10.98;;;8.32;;
13592;SDS011;6867;50.998;4.250;2022-09-12T07:43:02;12.85;;;9.57;;
13592;SDS011;6867;50.998;4.250;2022-09-12T07:45:30;13.13;;;8.75;;
13592;SDS011;6867;50.998;4.250;2022-09-12T07:47:56;13.38;;;8.02;;
13592;SDS011;6867;50.998;4.250;2022-09-12T07:50:23;13.00;;;8.70;;
13592;SDS011;6867;50.998;4.250;2022-09-12T07:52:51;13.52;;;8.27;;
13592;SDS011;6867;50.998;4.250;2022-09-12T07:55:19;12.02;;;7.90;;
13592;SDS011;6867;50.998;4.250;2022-09-12T07:57:47;8.32;;;6.88;;
13592;SDS011;6867;50.998;4.250;2022-09-12T08:00:14;9.05;;;7.47;;
13592;SDS011;6867;50.998;4.250;2022-09-12T08:02:41;11.23;;;6.93;;
13592;SDS011;6867;50.998;4.250;2022-09-12T08:05:08;9.73;;;6.35;;
13592;SDS011;6867;50.998;4.250;2022-09-12T08:07:34;6.65;;;5.75;;
13592;SDS011;6867;50.998;4.250;2022-09-12T08:10:03;11.23;;;5.93;;
13592;SDS011;6867;50.998;4.250;2022-09-12T08:12:30;7.90;;;5.90;;
13592;SDS011;6867;50.998;4.250;2022-09-12T08:14:58;6.45;;;5.22;;
13592;SDS011;6867;50.998;4.250;2022-09-12T08:17:25;9.85;;;5.50;;
13592;SDS011;6867;50.998;4.250;2022-09-12T08:19:52;7.00;;;5.00;;
13592;SDS011;6867;50.998;4.250;2022-09-12T08:22:19;9.48;;;5.70;;
13592;SDS011;6867;50.998;4.250;2022-09-12T08:24:46;6.55;;;4.78;;
13592;SDS011;6867;50.998;4.250;2022-09-12T08:27:14;6.50;;;4.65;;
13592;SDS011;6867;50.998;4.250;2022-09-12T08:29:41;7.30;;;5.10;;
13592;SDS011;6867;50.998;4.250;2022-09-12T08:32:08;7.25;;;4.40;;
13592;SDS011;6867;50.998;4.250;2022-09-12T08:34:35;5.43;;;4.07;;
13592;SDS011;6867;50.998;4.250;2022-09-12T08:37:01;4.28;;;3.88;;
13592;SDS011;6867;50.998;4.250;2022-09-12T08:39:28;6.03;;;3.85;;
13592;SDS011;6867;50.998;4.250;2022-09-12T08:41:56;7.00;;;3.75;;
13592;SDS011;6867;50.998;4.250;2022-09-12T08:44:30;4.85;;;4.10;;
13592;SDS011;6867;50.998;4.250;2022-09-12T08:47:21;6.60;;;4.10;;
13592;SDS011;6867;50.998;4.250;2022-09-12T08:49:54;5.28;;;4.50;;
13592;SDS011;6867;50.998;4.250;2022-09-12T08:52:27;5.95;;;4.50;;
13592;SDS011;6867;50.998;4.250;2022-09-12T08:54:59;6.05;;;4.10;;
13592;SDS011;6867;50.998;4.250;2022-09-12T08:57:27;5.82;;;4.30;;
13592;SDS011;6867;50.998;4.250;2022-09-12T08:59:55;5.78;;;4.15;;
13592;SDS011;6867;50.998;4.250;2022-09-12T09:05:28;7.22;;;4.47;;
13592;SDS011;6867;50.998;4.250;2022-09-12T09:08:19;6.40;;;3.83;;
13592;SDS011;6867;50.998;4.250;2022-09-12T09:10:58;5.82;;;3.70;;
13592;SDS011;6867;50.998;4.250;2022-09-12T09:13:33;4.93;;;3.63;;
13592;SDS011;6867;50.998;4.250;2022-09-12T09:16:29;4.30;;;3.65;;
13592;SDS011;6867;50.998;4.250;2022-09-12T09:18:57;3.85;;;3.35;;
13592;SDS011;6867;50.998;4.250;2022-09-12T09:21:28;5.95;;;4.43;;
13592;SDS011;6867;50.998;4.250;2022-09-12T09:24:01;4.57;;;3.80;;
13592;SDS011;6867;50.998;4.250;2022-09-12T09:26:34;5.03;;;4.05;;
13592;SDS011;6867;50.998;4.250;2022-09-12T09:29:10;4.75;;;3.72;;
13592;SDS011;6867;50.998;4.250;2022-09-12T09:31:45;4.53;;;3.55;;
13592;SDS011;6867;50.998;4.250;2022-09-12T09:34:15;4.80;;;3.30;;
13592;SDS011;6867;50.998;4.250;2022-09-12T09:36:49;7.43;;;3.20;;
13592;SDS011;6867;50.998;4.250;2022-09-12T09:39:23;5.85;;;3.28;;
13592;SDS011;6867;50.998;4.250;2022-09-12T09:42:04;3.72;;;2.88;;
13592;SDS011;6867;50.998;4.250;2022-09-12T09:44:39;4.63;;;2.83;;
13592;SDS011;6867;50.998;4.250;2022-09-12T09:47:08;5.72;;;3.53;;
13592;SDS011;6867;50.998;4.250;2022-09-12T09:49:37;4.85;;;3.33;;
13592;SDS011;6867;50.998;4.250;2022-09-12T09:52:04;3.17;;;2.88;;
13592;SDS011;6867;50.998;4.250;2022-09-12T09:54:33;4.45;;;2.38;;
13592;SDS011;6867;50.998;4.250;2022-09-12T09:57:05;4.18;;;2.58;;
13592;SDS011;6867;50.998;4.250;2022-09-12T10:00:20;6.18;;;2.88;;
13592;SDS011;6867;50.998;4.250;2022-09-12T10:03:04;5.30;;;2.67;;
13592;SDS011;6867;50.998;4.250;2022-09-12T10:05:48;6.07;;;3.10;;
13592;SDS011;6867;50.998;4.250;2022-09-12T10:08:20;2.90;;;2.38;;
13592;SDS011;6867;50.998;4.250;2022-09-12T10:10:57;3.08;;;2.30;;
13592;SDS011;6867;50.998;4.250;2022-09-12T10:13:31;4.88;;;2.60;;
13592;SDS011;6867;50.998;4.250;2022-09-12T10:16:02;3.65;;;2.30;;
13592;SDS011;6867;50.998;4.250;2022-09-12T10:18:36;1.80;;;1.60;;
13592;SDS011;6867;50.998;4.250;2022-09-12T10:21:14;2.30;;;1.63;;
13592;SDS011;6867;50.998;4.250;2022-09-12T10:23:45;2.92;;;2.00;;
13592;SDS011;6867;50.998;4.250;2022-09-12T10:26:13;2.22;;;2.03;;
13592;SDS011;6867;50.998;4.250;2022-09-12T10:28:42;3.10;;;1.80;;
13592;SDS011;6867;50.998;4.250;2022-09-12T10:31:13;2.03;;;1.80;;
13592;SDS011;6867;50.998;4.250;2022-09-12T10:33:44;3.40;;;1.70;;
13592;SDS011;6867;50.998;4.250;2022-09-12T10:36:16;2.30;;;1.83;;
13592;SDS011;6867;50.998;4.250;2022-09-12T10:38:47;2.67;;;1.75;;
13592;SDS011;6867;50.998;4.250;2022-09-12T10:41:15;2.17;;;1.95;;
13592;SDS011;6867;50.998;4.250;2022-09-12T10:43:42;2.22;;;1.70;;
13592;SDS011;6867;50.998;4.250;2022-09-12T10:46:19;2.58;;;1.63;;
13592;SDS011;6867;50.998;4.250;2022-09-12T10:48:51;2.35;;;1.90;;
13592;SDS011;6867;50.998;4.250;2022-09-12T10:51:37;2.10;;;1.83;;
13592;SDS011;6867;50.998;4.250;2022-09-12T10:54:06;6.32;;;2.13;;
13592;SDS011;6867;50.998;4.250;2022-09-12T10:56:37;2.70;;;1.83;;
13592;SDS011;6867;50.998;4.250;2022-09-12T10:59:14;2.75;;;1.60;;
13592;SDS011;6867;50.998;4.250;2022-09-12T11:01:51;1.80;;;1.67;;
13592;SDS011;6867;50.998;4.250;2022-09-12T11:04:28;3.15;;;1.98;;
13592;SDS011;6867;50.998;4.250;2022-09-12T11:07:12;3.17;;;1.85;;
13592;SDS011;6867;50.998;4.250;2022-09-12T11:09:53;1.58;;;1.48;;
13592;SDS011;6867;50.998;4.250;2022-09-12T11:12:28;2.42;;;1.83;;
13592;SDS011;6867;50.998;4.250;2022-09-12T11:15:06;1.90;;;1.60;;
13592;SDS011;6867;50.998;4.250;2022-09-12T11:17:49;4.78;;;1.90;;
13592;SDS011;6867;50.998;4.250;2022-09-12T11:20:34;2.50;;;1.70;;
13592;SDS011;6867;50.998;4.250;2022-09-12T11:26:13;2.10;;;1.90;;
13592;SDS011;6867;50.998;4.250;2022-09-12T11:28:51;3.08;;;1.73;;
13592;SDS011;6867;50.998;4.250;2022-09-12T11:31:41;2.05;;;1.67;;
13592;SDS011;6867;50.998;4.250;2022-09-12T11:34:22;4.32;;;1.73;;
13592;SDS011;6867;50.998;4.250;2022-09-12T11:37:02;4.32;;;2.15;;
13592;SDS011;6867;50.998;4.250;2022-09-12T11:39:41;2.45;;;1.70;;
13592;SDS011;6867;50.998;4.250;2022-09-12T11:42:14;4.65;;;1.90;;
13592;SDS011;6867;50.998;4.250;2022-09-12T11:44:45;2.63;;;1.90;;
13592;SDS011;6867;50.998;4.250;2022-09-12T11:47:17;3.72;;;2.00;;
13592;SDS011;6867;50.998;4.250;2022-09-12T11:49:45;8.23;;;1.98;;
13592;SDS011;6867;50.998;4.250;2022-09-12T11:52:17;2.67;;;1.70;;
13592;SDS011;6867;50.998;4.250;2022-09-12T11:54:47;2.55;;;1.90;;
13592;SDS011;6867;50.998;4.250;2022-09-12T11:57:18;2.53;;;1.83;;
13592;SDS011;6867;50.998;4.250;2022-09-12T11:59:53;4.57;;;2.30;;
13592;SDS011;6867;50.998;4.250;2022-09-12T12:02:24;2.30;;;2.08;;
13592;SDS011;6867;50.998;4.250;2022-09-12T12:05:01;3.22;;;2.08;;
13592;SDS011;6867;50.998;4.250;2022-09-12T12:07:41;2.40;;;2.20;;
13592;SDS011;6867;50.998;4.250;2022-09-12T12:10:24;2.58;;;2.15;;
13592;SDS011;6867;50.998;4.250;2022-09-12T12:12:55;4.47;;;2.08;;
13592;SDS011;6867;50.998;4.250;2022-09-12T12:15:23;2.70;;;2.10;;
13592;SDS011;6867;50.998;4.250;2022-09-12T12:18:04;2.72;;;2.25;;
13592;SDS011;6867;50.998;4.250;2022-09-12T12:20:33;4.85;;;2.20;;
13592;SDS011;6867;50.998;4.250;2022-09-12T12:23:02;1.90;;;1.80;;
13592;SDS011;6867;50.998;4.250;2022-09-12T12:25:39;2.05;;;1.67;;
13592;SDS011;6867;50.998;4.250;2022-09-12T12:31:15;2.90;;;2.00;;
13592;SDS011;6867;50.998;4.250;2022-09-12T12:36:53;3.78;;;2.20;;
13592;SDS011;6867;50.998;4.250;2022-09-12T12:46:07;2.17;;;1.50;;
13592;SDS011;6867;50.998;4.250;2022-09-12T12:51:33;4.70;;;1.65;;
13592;SDS011;6867;50.998;4.250;2022-09-12T12:54:03;1.80;;;1.42;;
13592;SDS011;6867;50.998;4.250;2022-09-12T12:56:44;2.78;;;1.90;;
13592;SDS011;6867;50.998;4.250;2022-09-12T12:59:14;1.67;;;1.58;;
13592;SDS011;6867;50.998;4.250;2022-09-12T13:01:45;1.70;;;1.60;;
13592;SDS011;6867;50.998;4.250;2022-09-12T13:04:15;3.05;;;1.58;;
13592;SDS011;6867;50.998;4.250;2022-09-12T13:06:44;2.78;;;1.45;;
13592;SDS011;6867;50.998;4.250;2022-09-12T13:09:21;2.55;;;1.33;;
13592;SDS011;6867;50.998;4.250;2022-09-12T13:11:55;1.90;;;1.50;;
13592;SDS011;6867;50.998;4.250;2022-09-12T13:14:34;2.90;;;1.50;;
13592;SDS011;6867;50.998;4.250;2022-09-12T13:17:13;3.55;;;1.60;;
13592;SDS011;6867;50.998;4.250;2022-09-12T13:19:44;2.70;;;1.48;;
13592;SDS011;6867;50.998;4.250;2022-09-12T13:22:13;1.83;;;1.67;;
13592;SDS011;6867;50.998;4.250;2022-09-12T13:24:44;4.57;;;1.92;;
13592;SDS011;6867;50.998;4.250;2022-09-12T13:27:17;3.20;;;1.90;;
13592;SDS011;6867;50.998;4.250;2022-09-12T13:29:46;2.15;;;1.90;;
13592;SDS011;6867;50.998;4.250;2022-09-12T13:32:12;3.78;;;1.65;;
13592;SDS011;6867;50.998;4.250;2022-09-12T13:34:48;1.75;;;1.50;;
13592;SDS011;6867;50.998;4.250;2022-09-12T13:37:29;2.05;;;1.48;;
13592;SDS011;6867;50.998;4.250;2022-09-12T13:40:15;4.30;;;1.35;;
13592;SDS011;6867;50.998;4.250;2022-09-12T13:42:52;1.30;;;1.20;;
13592;SDS011;6867;50.998;4.250;2022-09-12T13:45:36;1.77;;;1.50;;
13592;SDS011;6867;50.998;4.250;2022-09-12T13:48:04;1.63;;;1.23;;
13592;SDS011;6867;50.998;4.250;2022-09-12T13:50:38;1.88;;;1.50;;
13592;SDS011;6867;50.998;4.250;2022-09-12T13:53:11;3.55;;;1.60;;
13592;SDS011;6867;50.998;4.250;2022-09-12T13:55:41;1.98;;;1.52;;
13592;SDS011;6867;50.998;4.250;2022-09-12T13:58:16;1.40;;;1.30;;
13592;SDS011;6867;50.998;4.250;2022-09-12T14:00:58;2.03;;;1.20;;
13592;SDS011;6867;50.998;4.250;2022-09-12T14:03:26;2.47;;;1.40;;
13592;SDS011;6867;50.998;4.250;2022-09-12T14:06:11;2.42;;;1.50;;
13592;SDS011;6867;50.998;4.250;2022-09-12T14:08:38;4.22;;;1.70;;
13592;SDS011;6867;50.998;4.250;2022-09-12T14:11:07;1.95;;;1.40;;
13592;SDS011;6867;50.998;4.250;2022-09-12T14:13:35;1.70;;;1.40;;
13592;SDS011;6867;50.998;4.250;2022-09-12T14:16:04;1.42;;;1.33;;
13592;SDS011;6867;50.998;4.250;2022-09-12T14:18:34;2.00;;;1.20;;
13592;SDS011;6867;50.998;4.250;2022-09-12T14:21:06;1.38;;;1.27;;
13592;SDS011;6867;50.998;4.250;2022-09-12T14:23:38;1.58;;;1.45;;
13592;SDS011;6867;50.998;4.250;2022-09-12T14:26:08;2.50;;;1.60;;
13592;SDS011;6867;50.998;4.250;2022-09-12T14:28:38;1.98;;;1.45;;
13592;SDS011;6867;50.998;4.250;2022-09-12T14:31:19;4.32;;;1.63;;
13592;SDS011;6867;50.998;4.250;2022-09-12T14:33:49;6.07;;;1.60;;
13592;SDS011;6867;50.998;4.250;2022-09-12T14:36:21;2.10;;;1.60;;
13592;SDS011;6867;50.998;4.250;2022-09-12T14:38:51;1.90;;;1.40;;
13592;SDS011;6867;50.998;4.250;2022-09-12T14:41:20;2.30;;;1.27;;
13592;SDS011;6867;50.998;4.250;2022-09-12T14:43:50;2.08;;;1.50;;
13592;SDS011;6867;50.998;4.250;2022-09-12T14:46:23;1.60;;;1.33;;
13592;SDS011;6867;50.998;4.250;2022-09-12T14:48:53;1.50;;;1.40;;
13592;SDS011;6867;50.998;4.250;2022-09-12T14:51:24;1.90;;;1.55;;
13592;SDS011;6867;50.998;4.250;2022-09-12T14:53:52;1.70;;;1.60;;
13592;SDS011;6867;50.998;4.250;2022-09-12T14:56:19;1.75;;;1.52;;
13592;SDS011;6867;50.998;4.250;2022-09-12T14:58:47;1.75;;;1.65;;
13592;SDS011;6867;50.998;4.250;2022-09-12T15:01:23;2.05;;;1.40;;
13592;SDS011;6867;50.998;4.250;2022-09-12T15:03:51;2.47;;;1.55;;
13592;SDS011;6867;50.998;4.250;2022-09-12T15:06:20;1.80;;;1.65;;
13592;SDS011;6867;50.998;4.250;2022-09-12T15:08:51;1.52;;;1.42;;
13592;SDS011;6867;50.998;4.250;2022-09-12T15:11:19;6.82;;;1.95;;
13592;SDS011;6867;50.998;4.250;2022-09-12T15:13:46;2.00;;;1.27;;
13592;SDS011;6867;50.998;4.250;2022-09-12T15:16:12;3.40;;;1.88;;
13592;SDS011;6867;50.998;4.250;2022-09-12T15:18:41;1.85;;;1.25;;
13592;SDS011;6867;50.998;4.250;2022-09-12T15:21:11;2.53;;;1.30;;
13592;SDS011;6867;50.998;4.250;2022-09-12T15:23:41;2.08;;;1.48;;
13592;SDS011;6867;50.998;4.250;2022-09-12T15:26:10;1.67;;;1.15;;
13592;SDS011;6867;50.998;4.250;2022-09-12T15:28:38;1.40;;;1.30;;
13592;SDS011;6867;50.998;4.250;2022-09-12T15:31:08;2.42;;;1.10;;
13592;SDS011;6867;50.998;4.250;2022-09-12T15:33:38;2.10;;;1.15;;
13592;SDS011;6867;50.998;4.250;2022-09-12T15:36:11;1.55;;;1.30;;
13592;SDS011;6867;50.998;4.250;2022-09-12T15:38:40;2.63;;;1.15;;
13592;SDS011;6867;50.998;4.250;2022-09-12T15:41:10;1.20;;;1.10;;
13592;SDS011;6867;50.998;4.250;2022-09-12T15:43:40;1.42;;;1.10;;
13592;SDS011;6867;50.998;4.250;2022-09-12T15:46:08;2.35;;;1.20;;
13592;SDS011;6867;50.998;4.250;2022-09-12T15:48:37;4.57;;;1.60;;
13592;SDS011;6867;50.998;4.250;2022-09-12T15:51:04;1.50;;;1.35;;